sensor_id;sensor_type;location;lat;lon;timestamp;P1;durP1;ratioP1;P2;durP2;ratioP2
15814;SDS011;8008;50.024;8.172;2023-09-19T03:02:56;3.47;;;1.98;;
15814;SDS011;8008;50.024;8.172;2023-09-19T03:05:26;2.00;;;1.77;;
15814;SDS011;8008;50.024;8.172;2023-09-19T03:07:57;3.08;;;1.80;;
15814;SDS011;8008;50.024;8.172;2023-09-19T03:10:27;1.70;;;1.60;;
15814;SDS011;8008;50.024;8.172;2023-09-19T03:12:56;1.83;;;1.70;;
15814;SDS011;8008;50.024;8.172;2023-09-19T03:15:27;2.60;;;2.00;;
15814;SDS011;8008;50.024;8.172;2023-09-19T03:17:55;4.07;;;2.10;;
15814;SDS011;8008;50.024;8.172;2023-09-19T03:20:24;2.67;;;2.10;;
15814;SDS011;8008;50.024;8.172;2023-09-19T03:22:53;4.35;;;2.05;;
15814;SDS011;8008;50.024;8.172;2023-09-19T03:25:22;4.20;;;2.00;;
15814;SDS011;8008;50.024;8.172;2023-09-19T03:27:51;4.22;;;1.95;;
15814;SDS011;8008;50.024;8.172;2023-09-19T03:30:21;3.30;;;2.00;;
15814;SDS011;8008;50.024;8.172;2023-09-19T03:32:52;2.00;;;1.80;;
15814;SDS011;8008;50.024;8.172;2023-09-19T03:35:20;1.80;;;1.70;;
15814;SDS011;8008;50.024;8.172;2023-09-19T03:37:48;4.25;;;1.77;;
15814;SDS011;8008;50.024;8.172;2023-09-19T03:40:18;5.03;;;1.90;;
15814;SDS011;8008;50.024;8.172;2023-09-19T03:42:48;2.58;;;2.08;;
15814;SDS011;8008;50.024;8.172;2023-09-19T03:45:17;3.38;;;2.03;;
15814;SDS011;8008;50.024;8.172;2023-09-19T03:47:50;2.83;;;1.70;;
15814;SDS011;8008;50.024;8.172;2023-09-19T03:50:22;2.33;;;1.90;;
15814;SDS011;8008;50.024;8.172;2023-09-19T03:52:50;2.83;;;1.70;;
15814;SDS011;8008;50.024;8.172;2023-09-19T03:55:24;3.35;;;1.95;;
15814;SDS011;8008;50.024;8.172;2023-09-19T03:57:52;4.60;;;2.53;;
15814;SDS011;8008;50.024;8.172;2023-09-19T04:00:20;2.35;;;1.80;;
15814;SDS011;8008;50.024;8.172;2023-09-19T04:02:51;2.65;;;1.90;;
15814;SDS011;8008;50.024;8.172;2023-09-19T04:05:19;3.83;;;2.17;;
15814;SDS011;8008;50.024;8.172;2023-09-19T04:07:48;1.92;;;1.70;;
15814;SDS011;8008;50.024;8.172;2023-09-19T04:10:17;2.97;;;1.98;;
15814;SDS011;8008;50.024;8.172;2023-09-19T04:12:52;2.40;;;1.85;;
15814;SDS011;8008;50.024;8.172;2023-09-19T04:15:21;4.88;;;1.80;;
15814;SDS011;8008;50.024;8.172;2023-09-19T04:17:52;3.33;;;1.77;;
15814;SDS011;8008;50.024;8.172;2023-09-19T04:20:20;3.15;;;2.00;;
15814;SDS011;8008;50.024;8.172;2023-09-19T04:22:51;6.35;;;2.20;;
15814;SDS011;8008;50.024;8.172;2023-09-19T04:25:19;2.63;;;1.77;;
15814;SDS011;8008;50.024;8.172;2023-09-19T04:27:47;1.83;;;1.70;;
15814;SDS011;8008;50.024;8.172;2023-09-19T04:30:16;2.95;;;1.75;;
15814;SDS011;8008;50.024;8.172;2023-09-19T04:32:44;1.98;;;1.60;;
15814;SDS011;8008;50.024;8.172;2023-09-19T04:35:17;2.88;;;2.00;;
15814;SDS011;8008;50.024;8.172;2023-09-19T04:37:45;3.47;;;1.80;;
15814;SDS011;8008;50.024;8.172;2023-09-19T04:40:15;2.20;;;1.95;;
15814;SDS011;8008;50.024;8.172;2023-09-19T04:42:45;4.75;;;2.00;;
15814;SDS011;8008;50.024;8.172;2023-09-19T04:45:22;3.35;;;2.08;;
15814;SDS011;8008;50.024;8.172;2023-09-19T04:47:50;2.75;;;2.10;;
15814;SDS011;8008;50.024;8.172;2023-09-19T04:50:18;4.30;;;2.05;;
15814;SDS011;8008;50.024;8.172;2023-09-19T04:52:49;4.75;;;2.20;;
15814;SDS011;8008;50.024;8.172;2023-09-19T04:55:19;5.32;;;1.90;;
15814;SDS011;8008;50.024;8.172;2023-09-19T04:57:48;2.97;;;2.08;;
15814;SDS011;8008;50.024;8.172;2023-09-19T05:00:17;2.92;;;2.13;;
15814;SDS011;8008;50.024;8.172;2023-09-19T05:02:49;3.78;;;2.17;;
15814;SDS011;8008;50.024;8.172;2023-09-19T05:05:18;3.13;;;2.30;;
15814;SDS011;8008;50.024;8.172;2023-09-19T05:07:47;3.10;;;2.03;;
15814;SDS011;8008;50.024;8.172;2023-09-19T05:10:15;4.05;;;2.30;;
15814;SDS011;8008;50.024;8.172;2023-09-19T05:12:46;3.03;;;2.17;;
15814;SDS011;8008;50.024;8.172;2023-09-19T05:15:17;3.47;;;2.00;;
15814;SDS011;8008;50.024;8.172;2023-09-19T05:17:48;4.20;;;2.10;;
15814;SDS011;8008;50.024;8.172;2023-09-19T05:20:22;3.30;;;1.90;;
15814;SDS011;8008;50.024;8.172;2023-09-19T05:22:59;4.03;;;2.15;;
15814;SDS011;8008;50.024;8.172;2023-09-19T05:25:34;3.25;;;1.88;;
15814;SDS011;8008;50.024;8.172;2023-09-19T05:28:07;4.60;;;2.20;;
15814;SDS011;8008;50.024;8.172;2023-09-19T05:30:37;3.55;;;2.05;;
15814;SDS011;8008;50.024;8.172;2023-09-19T05:33:06;4.57;;;2.10;;
15814;SDS011;8008;50.024;8.172;2023-09-19T05:35:34;4.80;;;2.10;;
15814;SDS011;8008;50.024;8.172;2023-09-19T05:38:05;4.88;;;2.00;;
15814;SDS011;8008;50.024;8.172;2023-09-19T05:40:36;5.18;;;2.38;;
15814;SDS011;8008;50.024;8.172;2023-09-19T05:43:06;2.67;;;2.15;;
15814;SDS011;8008;50.024;8.172;2023-09-19T05:45:34;4.97;;;2.22;;
15814;SDS011;8008;50.024;8.172;2023-09-19T05:48:07;3.10;;;2.10;;
15814;SDS011;8008;50.024;8.172;2023-09-19T05:50:36;3.17;;;2.10;;
15814;SDS011;8008;50.024;8.172;2023-09-19T05:53:04;4.47;;;2.05;;
15814;SDS011;8008;50.024;8.172;2023-09-19T05:55:32;5.88;;;2.20;;
15814;SDS011;8008;50.024;8.172;2023-09-19T05:58:01;5.00;;;1.90;;
15814;SDS011;8008;50.024;8.172;2023-09-19T06:00:32;4.03;;;2.00;;
15814;SDS011;8008;50.024;8.172;2023-09-19T06:03:04;3.33;;;2.08;;
15814;SDS011;8008;50.024;8.172;2023-09-19T06:05:32;2.45;;;1.77;;
15814;SDS011;8008;50.024;8.172;2023-09-19T06:08:00;5.25;;;2.17;;
15814;SDS011;8008;50.024;8.172;2023-09-19T06:10:34;2.35;;;1.90;;
15814;SDS011;8008;50.024;8.172;2023-09-19T06:13:03;3.97;;;2.00;;
15814;SDS011;8008;50.024;8.172;2023-09-19T06:15:34;3.83;;;2.00;;
15814;SDS011;8008;50.024;8.172;2023-09-19T06:18:02;3.60;;;1.98;;
15814;SDS011;8008;50.024;8.172;2023-09-19T06:20:32;3.42;;;2.00;;
15814;SDS011;8008;50.024;8.172;2023-09-19T06:23:00;3.95;;;2.08;;
15814;SDS011;8008;50.024;8.172;2023-09-19T06:25:30;4.65;;;1.80;;
15814;SDS011;8008;50.024;8.172;2023-09-19T06:27:58;5.65;;;1.98;;
15814;SDS011;8008;50.024;8.172;2023-09-19T06:30:25;3.33;;;2.13;;
15814;SDS011;8008;50.024;8.172;2023-09-19T06:33:00;3.72;;;1.90;;
15814;SDS011;8008;50.024;8.172;2023-09-19T06:35:31;2.80;;;2.05;;
15814;SDS011;8008;50.024;8.172;2023-09-19T06:38:02;4.88;;;2.10;;
15814;SDS011;8008;50.024;8.172;2023-09-19T06:40:30;4.05;;;1.80;;
15814;SDS011;8008;50.024;8.172;2023-09-19T06:42:58;3.45;;;1.83;;
15814;SDS011;8008;50.024;8.172;2023-09-19T06:45:28;3.63;;;1.70;;
15814;SDS011;8008;50.024;8.172;2023-09-19T06:47:56;3.25;;;1.67;;
15814;SDS011;8008;50.024;8.172;2023-09-19T06:50:27;2.38;;;1.70;;
15814;SDS011;8008;50.024;8.172;2023-09-19T06:52:59;4.15;;;1.80;;
15814;SDS011;8008;50.024;8.172;2023-09-19T06:55:28;5.25;;;2.20;;
15814;SDS011;8008;50.024;8.172;2023-09-19T06:57:59;5.03;;;2.03;;
15814;SDS011;8008;50.024;8.172;2023-09-19T07:00:27;5.32;;;2.10;;
15814;SDS011;8008;50.024;8.172;2023-09-19T07:02:58;7.13;;;2.13;;
15814;SDS011;8008;50.024;8.172;2023-09-19T07:05:29;2.15;;;1.90;;
15814;SDS011;8008;50.024;8.172;2023-09-19T07:07:58;3.97;;;2.03;;
15814;SDS011;8008;50.024;8.172;2023-09-19T07:10:27;6.38;;;1.90;;
15814;SDS011;8008;50.024;8.172;2023-09-19T07:12:56;5.80;;;2.10;;
15814;SDS011;8008;50.024;8.172;2023-09-19T07:15:25;2.80;;;1.95;;
15814;SDS011;8008;50.024;8.172;2023-09-19T07:17:53;3.13;;;1.98;;
15814;SDS011;8008;50.024;8.172;2023-09-19T07:20:23;5.85;;;2.40;;
15814;SDS011;8008;50.024;8.172;2023-09-19T07:22:54;4.50;;;2.00;;
15814;SDS011;8008;50.024;8.172;2023-09-19T07:25:22;2.80;;;1.98;;
15814;SDS011;8008;50.024;8.172;2023-09-19T07:27:51;5.40;;;2.08;;
15814;SDS011;8008;50.024;8.172;2023-09-19T07:30:19;5.70;;;2.15;;
15814;SDS011;8008;50.024;8.172;2023-09-19T07:32:47;4.45;;;2.00;;
15814;SDS011;8008;50.024;8.172;2023-09-19T07:35:15;4.60;;;2.10;;
15814;SDS011;8008;50.024;8.172;2023-09-19T07:37:45;4.72;;;1.88;;
15814;SDS011;8008;50.024;8.172;2023-09-19T07:40:18;6.35;;;2.05;;
15814;SDS011;8008;50.024;8.172;2023-09-19T07:42:47;3.13;;;2.00;;
15814;SDS011;8008;50.024;8.172;2023-09-19T07:45:15;4.53;;;1.80;;
15814;SDS011;8008;50.024;8.172;2023-09-19T07:47:44;3.58;;;1.83;;
15814;SDS011;8008;50.024;8.172;2023-09-19T07:50:13;3.58;;;1.85;;
15814;SDS011;8008;50.024;8.172;2023-09-19T07:52:42;3.20;;;1.80;;
15814;SDS011;8008;50.024;8.172;2023-09-19T07:55:11;3.85;;;2.00;;
15814;SDS011;8008;50.024;8.172;2023-09-19T07:57:45;4.00;;;2.00;;
15814;SDS011;8008;50.024;8.172;2023-09-19T08:00:13;5.10;;;2.05;;
15814;SDS011;8008;50.024;8.172;2023-09-19T08:02:42;5.05;;;1.80;;
15814;SDS011;8008;50.024;8.172;2023-09-19T08:05:12;3.97;;;1.70;;
15814;SDS011;8008;50.024;8.172;2023-09-19T08:07:43;4.65;;;1.77;;
15814;SDS011;8008;50.024;8.172;2023-09-19T08:10:15;3.22;;;1.90;;
15814;SDS011;8008;50.024;8.172;2023-09-19T08:12:47;7.22;;;1.70;;
15814;SDS011;8008;50.024;8.172;2023-09-19T08:15:22;4.68;;;1.67;;
15814;SDS011;8008;50.024;8.172;2023-09-19T08:17:50;2.17;;;1.63;;
15814;SDS011;8008;50.024;8.172;2023-09-19T08:20:18;3.83;;;1.77;;
15814;SDS011;8008;50.024;8.172;2023-09-19T08:22:47;6.35;;;1.70;;
15814;SDS011;8008;50.024;8.172;2023-09-19T08:25:15;4.15;;;1.73;;
15814;SDS011;8008;50.024;8.172;2023-09-19T08:27:46;4.57;;;1.67;;
15814;SDS011;8008;50.024;8.172;2023-09-19T08:30:16;3.28;;;1.98;;
15814;SDS011;8008;50.024;8.172;2023-09-19T08:32:46;2.63;;;1.60;;
15814;SDS011;8008;50.024;8.172;2023-09-19T08:35:14;4.93;;;1.92;;
15814;SDS011;8008;50.024;8.172;2023-09-19T08:37:42;5.35;;;1.90;;
15814;SDS011;8008;50.024;8.172;2023-09-19T08:40:11;3.88;;;1.92;;
15814;SDS011;8008;50.024;8.172;2023-09-19T08:42:51;4.63;;;1.80;;
15814;SDS011;8008;50.024;8.172;2023-09-19T08:45:20;7.72;;;1.70;;
15814;SDS011;8008;50.024;8.172;2023-09-19T08:47:50;6.10;;;1.75;;
15814;SDS011;8008;50.024;8.172;2023-09-19T08:50:29;4.28;;;2.03;;
15814;SDS011;8008;50.024;8.172;2023-09-19T08:53:00;4.07;;;1.63;;
15814;SDS011;8008;50.024;8.172;2023-09-19T08:55:30;5.50;;;1.90;;
15814;SDS011;8008;50.024;8.172;2023-09-19T08:58:03;5.47;;;1.92;;
15814;SDS011;8008;50.024;8.172;2023-09-19T09:00:34;5.65;;;1.65;;
15814;SDS011;8008;50.024;8.172;2023-09-19T09:03:03;4.72;;;1.60;;
15814;SDS011;8008;50.024;8.172;2023-09-19T09:05:36;7.88;;;2.08;;
15814;SDS011;8008;50.024;8.172;2023-09-19T09:08:07;4.95;;;1.80;;
15814;SDS011;8008;50.024;8.172;2023-09-19T09:10:37;6.03;;;1.88;;
15814;SDS011;8008;50.024;8.172;2023-09-19T09:13:08;4.47;;;1.73;;
15814;SDS011;8008;50.024;8.172;2023-09-19T09:15:40;6.57;;;1.77;;
15814;SDS011;8008;50.024;8.172;2023-09-19T09:18:11;3.83;;;1.75;;
15814;SDS011;8008;50.024;8.172;2023-09-19T09:20:39;8.00;;;1.80;;
15814;SDS011;8008;50.024;8.172;2023-09-19T09:23:08;5.72;;;1.88;;
15814;SDS011;8008;50.024;8.172;2023-09-19T09:25:49;4.30;;;1.85;;
15814;SDS011;8008;50.024;8.172;2023-09-19T09:28:22;8.77;;;2.00;;
15814;SDS011;8008;50.024;8.172;2023-09-19T09:30:51;6.78;;;1.80;;
15814;SDS011;8008;50.024;8.172;2023-09-19T09:33:20;6.75;;;2.05;;
15814;SDS011;8008;50.024;8.172;2023-09-19T09:35:50;4.47;;;1.83;;
15814;SDS011;8008;50.024;8.172;2023-09-19T09:38:20;5.50;;;2.05;;
15814;SDS011;8008;50.024;8.172;2023-09-19T09:40:52;7.78;;;1.90;;
15814;SDS011;8008;50.024;8.172;2023-09-19T09:43:28;9.30;;;2.17;;
15814;SDS011;8008;50.024;8.172;2023-09-19T09:46:08;4.22;;;2.05;;
15814;SDS011;8008;50.024;8.172;2023-09-19T09:49:00;6.95;;;1.88;;
15814;SDS011;8008;50.024;8.172;2023-09-19T09:51:42;6.47;;;1.80;;
15814;SDS011;8008;50.024;8.172;2023-09-19T09:54:14;9.70;;;2.33;;
15814;SDS011;8008;50.024;8.172;2023-09-19T09:56:56;3.40;;;1.75;;
15814;SDS011;8008;50.024;8.172;2023-09-19T10:02:16;4.40;;;2.05;;
15814;SDS011;8008;50.024;8.172;2023-09-19T10:04:52;7.05;;;1.90;;
15814;SDS011;8008;50.024;8.172;2023-09-19T10:07:26;5.32;;;1.65;;
15814;SDS011;8008;50.024;8.172;2023-09-19T10:10:06;4.75;;;1.80;;
15814;SDS011;8008;50.024;8.172;2023-09-19T10:12:43;4.47;;;2.08;;
15814;SDS011;8008;50.024;8.172;2023-09-19T10:15:17;5.40;;;1.80;;
15814;SDS011;8008;50.024;8.172;2023-09-19T10:17:47;5.90;;;2.00;;
15814;SDS011;8008;50.024;8.172;2023-09-19T10:20:16;4.80;;;1.77;;
15814;SDS011;8008;50.024;8.172;2023-09-19T10:23:04;4.13;;;1.88;;
15814;SDS011;8008;50.024;8.172;2023-09-19T10:25:37;5.93;;;1.80;;
15814;SDS011;8008;50.024;8.172;2023-09-19T10:28:06;6.25;;;1.80;;
15814;SDS011;8008;50.024;8.172;2023-09-19T10:30:42;4.63;;;1.60;;
15814;SDS011;8008;50.024;8.172;2023-09-19T10:33:12;5.50;;;1.83;;
15814;SDS011;8008;50.024;8.172;2023-09-19T10:35:43;5.15;;;1.38;;
15814;SDS011;8008;50.024;8.172;2023-09-19T10:38:12;5.32;;;1.90;;
15814;SDS011;8008;50.024;8.172;2023-09-19T10:40:44;3.30;;;1.80;;
15814;SDS011;8008;50.024;8.172;2023-09-19T10:43:17;4.65;;;1.80;;
15814;SDS011;8008;50.024;8.172;2023-09-19T10:45:49;5.47;;;1.85;;
15814;SDS011;8008;50.024;8.172;2023-09-19T10:48:19;6.20;;;1.67;;
15814;SDS011;8008;50.024;8.172;2023-09-19T10:51:06;5.15;;;1.80;;
15814;SDS011;8008;50.024;8.172;2023-09-19T10:53:41;7.47;;;1.98;;
15814;SDS011;8008;50.024;8.172;2023-09-19T10:56:16;6.45;;;1.70;;
15814;SDS011;8008;50.024;8.172;2023-09-19T10:58:48;6.45;;;1.88;;
15814;SDS011;8008;50.024;8.172;2023-09-19T11:01:19;5.65;;;1.98;;
15814;SDS011;8008;50.024;8.172;2023-09-19T11:03:47;4.80;;;1.80;;
15814;SDS011;8008;50.024;8.172;2023-09-19T11:06:19;7.40;;;1.90;;
15814;SDS011;8008;50.024;8.172;2023-09-19T11:08:59;4.50;;;1.58;;
15814;SDS011;8008;50.024;8.172;2023-09-19T11:11:42;7.50;;;2.08;;
15814;SDS011;8008;50.024;8.172;2023-09-19T11:14:39;5.32;;;1.60;;
15814;SDS011;8008;50.024;8.172;2023-09-19T11:20:19;4.55;;;2.25;;
15814;SDS011;8008;50.024;8.172;2023-09-19T11:25:49;9.02;;;2.40;;
15814;SDS011;8008;50.024;8.172;2023-09-19T11:28:28;6.63;;;1.73;;
15814;SDS011;8008;50.024;8.172;2023-09-19T11:30:57;3.47;;;1.70;;
15814;SDS011;8008;50.024;8.172;2023-09-19T11:33:27;3.05;;;1.70;;
15814;SDS011;8008;50.024;8.172;2023-09-19T11:36:01;3.47;;;1.70;;
15814;SDS011;8008;50.024;8.172;2023-09-19T11:41:36;3.88;;;1.85;;
15814;SDS011;8008;50.024;8.172;2023-09-19T11:47:04;4.80;;;1.73;;
15814;SDS011;8008;50.024;8.172;2023-09-19T11:49:34;7.25;;;1.77;;
15814;SDS011;8008;50.024;8.172;2023-09-19T11:52:07;3.03;;;1.70;;
15814;SDS011;8008;50.024;8.172;2023-09-19T11:54:37;4.22;;;1.88;;
15814;SDS011;8008;50.024;8.172;2023-09-19T11:57:07;5.22;;;1.73;;
15814;SDS011;8008;50.024;8.172;2023-09-19T11:59:38;6.45;;;1.70;;
15814;SDS011;8008;50.024;8.172;2023-09-19T12:02:07;4.22;;;1.50;;
15814;SDS011;8008;50.024;8.172;2023-09-19T12:04:38;4.88;;;1.80;;
15814;SDS011;8008;50.024;8.172;2023-09-19T12:07:10;6.63;;;1.70;;
15814;SDS011;8008;50.024;8.172;2023-09-19T12:09:42;5.22;;;1.70;;
15814;SDS011;8008;50.024;8.172;2023-09-19T12:12:18;4.10;;;1.60;;
15814;SDS011;8008;50.024;8.172;2023-09-19T12:14:47;3.45;;;1.70;;
15814;SDS011;8008;50.024;8.172;2023-09-19T12:17:15;4.45;;;1.50;;
15814;SDS011;8008;50.024;8.172;2023-09-19T12:19:50;5.15;;;1.80;;
15814;SDS011;8008;50.024;8.172;2023-09-19T12:22:19;2.05;;;1.40;;
15814;SDS011;8008;50.024;8.172;2023-09-19T12:24:47;5.95;;;2.10;;
15814;SDS011;8008;50.024;8.172;2023-09-19T12:27:17;4.55;;;1.60;;
15814;SDS011;8008;50.024;8.172;2023-09-19T12:29:45;4.40;;;1.60;;
15814;SDS011;8008;50.024;8.172;2023-09-19T12:32:15;3.45;;;1.30;;
15814;SDS011;8008;50.024;8.172;2023-09-19T12:34:51;4.20;;;1.63;;
15814;SDS011;8008;50.024;8.172;2023-09-19T12:37:21;3.30;;;1.55;;
15814;SDS011;8008;50.024;8.172;2023-09-19T12:40:00;4.18;;;1.70;;
15814;SDS011;8008;50.024;8.172;2023-09-19T12:42:41;5.40;;;1.67;;
15814;SDS011;8008;50.024;8.172;2023-09-19T12:45:11;4.22;;;1.90;;
15814;SDS011;8008;50.024;8.172;2023-09-19T12:53:32;3.03;;;1.50;;
15814;SDS011;8008;50.024;8.172;2023-09-19T12:56:02;2.88;;;1.50;;
15814;SDS011;8008;50.024;8.172;2023-09-19T12:58:32;5.07;;;1.70;;
15814;SDS011;8008;50.024;8.172;2023-09-19T13:01:01;3.25;;;1.65;;
15814;SDS011;8008;50.024;8.172;2023-09-19T13:03:31;4.55;;;1.90;;
15814;SDS011;8008;50.024;8.172;2023-09-19T13:06:03;4.35;;;1.88;;
15814;SDS011;8008;50.024;8.172;2023-09-19T13:08:32;3.30;;;1.58;;
15814;SDS011;8008;50.024;8.172;2023-09-19T13:11:05;4.03;;;1.60;;
15814;SDS011;8008;50.024;8.172;2023-09-19T13:13:37;3.45;;;1.35;;
15814;SDS011;8008;50.024;8.172;2023-09-19T13:16:06;2.53;;;1.58;;
15814;SDS011;8008;50.024;8.172;2023-09-19T13:18:41;3.83;;;1.60;;
15814;SDS011;8008;50.024;8.172;2023-09-19T13:21:15;3.72;;;1.80;;
15814;SDS011;8008;50.024;8.172;2023-09-19T13:23:49;4.88;;;1.50;;
15814;SDS011;8008;50.024;8.172;2023-09-19T13:26:18;3.45;;;1.50;;
15814;SDS011;8008;50.024;8.172;2023-09-19T13:28:46;6.78;;;1.77;;
15814;SDS011;8008;50.024;8.172;2023-09-19T13:31:16;6.00;;;1.65;;
15814;SDS011;8008;50.024;8.172;2023-09-19T13:33:44;3.08;;;1.50;;
15814;SDS011;8008;50.024;8.172;2023-09-19T13:36:13;5.10;;;1.55;;
15814;SDS011;8008;50.024;8.172;2023-09-19T13:38:42;4.60;;;1.63;;
15814;SDS011;8008;50.024;8.172;2023-09-19T13:41:13;2.60;;;1.40;;
15814;SDS011;8008;50.024;8.172;2023-09-19T13:43:42;3.38;;;1.55;;
15814;SDS011;8008;50.024;8.172;2023-09-19T13:46:15;4.28;;;1.65;;
15814;SDS011;8008;50.024;8.172;2023-09-19T13:48:51;3.05;;;1.75;;
15814;SDS011;8008;50.024;8.172;2023-09-19T13:51:21;2.85;;;1.58;;
15814;SDS011;8008;50.024;8.172;2023-09-19T13:53:51;1.80;;;1.42;;
15814;SDS011;8008;50.024;8.172;2023-09-19T13:56:20;2.83;;;1.70;;
15814;SDS011;8008;50.024;8.172;2023-09-19T13:58:48;3.28;;;1.58;;
15814;SDS011;8008;50.024;8.172;2023-09-19T14:01:16;3.50;;;1.42;;
15814;SDS011;8008;50.024;8.172;2023-09-19T14:03:44;3.55;;;1.70;;
15814;SDS011;8008;50.024;8.172;2023-09-19T14:06:13;4.07;;;1.65;;
15814;SDS011;8008;50.024;8.172;2023-09-19T14:08:41;2.45;;;1.70;;
15814;SDS011;8008;50.024;8.172;2023-09-19T14:11:10;3.97;;;1.65;;
15814;SDS011;8008;50.024;8.172;2023-09-19T14:13:38;5.00;;;1.50;;
15814;SDS011;8008;50.024;8.172;2023-09-19T14:16:07;3.13;;;1.63;;
15814;SDS011;8008;50.024;8.172;2023-09-19T14:18:35;3.78;;;1.40;;
15814;SDS011;8008;50.024;8.172;2023-09-19T14:21:04;3.05;;;1.45;;
15814;SDS011;8008;50.024;8.172;2023-09-19T14:23:34;2.63;;;1.60;;
15814;SDS011;8008;50.024;8.172;2023-09-19T14:26:03;2.17;;;1.30;;
15814;SDS011;8008;50.024;8.172;2023-09-19T14:28:33;3.85;;;1.60;;
15814;SDS011;8008;50.024;8.172;2023-09-19T14:31:05;2.15;;;1.33;;
15814;SDS011;8008;50.024;8.172;2023-09-19T14:33:34;2.75;;;1.70;;
15814;SDS011;8008;50.024;8.172;2023-09-19T14:36:03;2.90;;;1.60;;
15814;SDS011;8008;50.024;8.172;2023-09-19T14:38:32;2.15;;;1.50;;
15814;SDS011;8008;50.024;8.172;2023-09-19T14:41:01;3.75;;;1.52;;
15814;SDS011;8008;50.024;8.172;2023-09-19T14:43:29;3.20;;;1.55;;
15814;SDS011;8008;50.024;8.172;2023-09-19T14:46:03;2.55;;;1.50;;
15814;SDS011;8008;50.024;8.172;2023-09-19T14:48:33;2.30;;;1.60;;
15814;SDS011;8008;50.024;8.172;2023-09-19T14:51:02;3.55;;;1.65;;
15814;SDS011;8008;50.024;8.172;2023-09-19T14:53:30;3.88;;;1.70;;
15814;SDS011;8008;50.024;8.172;2023-09-19T14:55:59;3.15;;;1.20;;
15814;SDS011;8008;50.024;8.172;2023-09-19T14:58:29;5.95;;;1.50;;
15814;SDS011;8008;50.024;8.172;2023-09-19T15:01:03;2.60;;;1.50;;
15814;SDS011;8008;50.024;8.172;2023-09-19T15:03:32;2.00;;;1.20;;
15814;SDS011;8008;50.024;8.172;2023-09-19T15:06:02;3.35;;;1.58;;
15814;SDS011;8008;50.024;8.172;2023-09-19T15:08:31;2.20;;;1.30;;
15814;SDS011;8008;50.024;8.172;2023-09-19T15:11:01;1.92;;;1.25;;
15814;SDS011;8008;50.024;8.172;2023-09-19T15:13:33;2.30;;;1.40;;
15814;SDS011;8008;50.024;8.172;2023-09-19T15:16:04;2.75;;;1.48;;
15814;SDS011;8008;50.024;8.172;2023-09-19T15:18:36;2.03;;;1.30;;
15814;SDS011;8008;50.024;8.172;2023-09-19T15:21:05;2.50;;;1.42;;
15814;SDS011;8008;50.024;8.172;2023-09-19T15:23:36;1.85;;;1.45;;
15814;SDS011;8008;50.024;8.172;2023-09-19T15:26:05;3.55;;;1.52;;
15814;SDS011;8008;50.024;8.172;2023-09-19T15:28:34;2.17;;;1.30;;
15814;SDS011;8008;50.024;8.172;2023-09-19T15:31:05;3.97;;;1.50;;
15814;SDS011;8008;50.024;8.172;2023-09-19T15:33:34;3.97;;;1.40;;
15814;SDS011;8008;50.024;8.172;2023-09-19T15:36:04;2.25;;;1.38;;
15814;SDS011;8008;50.024;8.172;2023-09-19T15:38:55;4.15;;;1.35;;
15814;SDS011;8008;50.024;8.172;2023-09-19T15:41:25;3.40;;;1.60;;
15814;SDS011;8008;50.024;8.172;2023-09-19T15:43:55;1.35;;;1.25;;
15814;SDS011;8008;50.024;8.172;2023-09-19T15:46:25;2.08;;;1.25;;
15814;SDS011;8008;50.024;8.172;2023-09-19T15:48:54;2.30;;;1.33;;
15814;SDS011;8008;50.024;8.172;2023-09-19T15:51:22;3.10;;;1.40;;
15814;SDS011;8008;50.024;8.172;2023-09-19T15:53:50;2.67;;;1.38;;
15814;SDS011;8008;50.024;8.172;2023-09-19T15:56:20;3.78;;;1.27;;
15814;SDS011;8008;50.024;8.172;2023-09-19T15:58:49;1.88;;;1.10;;
15814;SDS011;8008;50.024;8.172;2023-09-19T16:01:20;2.63;;;1.48;;
15814;SDS011;8008;50.024;8.172;2023-09-19T16:03:51;1.20;;;1.10;;
15814;SDS011;8008;50.024;8.172;2023-09-19T16:06:22;2.97;;;1.40;;
15814;SDS011;8008;50.024;8.172;2023-09-19T16:08:53;2.80;;;1.40;;
15814;SDS011;8008;50.024;8.172;2023-09-19T16:11:22;2.83;;;1.25;;
15814;SDS011;8008;50.024;8.172;2023-09-19T16:13:51;2.58;;;1.02;;
15814;SDS011;8008;50.024;8.172;2023-09-19T16:16:20;2.85;;;1.40;;
15814;SDS011;8008;50.024;8.172;2023-09-19T16:18:52;1.50;;;1.23;;
15814;SDS011;8008;50.024;8.172;2023-09-19T16:21:22;3.40;;;1.50;;
15814;SDS011;8008;50.024;8.172;2023-09-19T16:23:53;2.45;;;1.70;;
15814;SDS011;8008;50.024;8.172;2023-09-19T16:26:23;2.55;;;1.60;;
15814;SDS011;8008;50.024;8.172;2023-09-19T16:28:52;2.78;;;1.73;;
15814;SDS011;8008;50.024;8.172;2023-09-19T16:31:22;2.05;;;1.30;;
15814;SDS011;8008;50.024;8.172;2023-09-19T16:33:51;2.35;;;1.60;;
15814;SDS011;8008;50.024;8.172;2023-09-19T16:36:19;2.28;;;1.52;;
15814;SDS011;8008;50.024;8.172;2023-09-19T16:38:48;3.75;;;1.65;;
15814;SDS011;8008;50.024;8.172;2023-09-19T16:41:16;2.40;;;1.50;;
15814;SDS011;8008;50.024;8.172;2023-09-19T16:43:46;1.63;;;1.17;;
15814;SDS011;8008;50.024;8.172;2023-09-19T16:46:14;3.20;;;1.50;;
15814;SDS011;8008;50.024;8.172;2023-09-19T16:48:44;3.15;;;1.30;;
15814;SDS011;8008;50.024;8.172;2023-09-19T16:51:17;2.08;;;1.42;;
15814;SDS011;8008;50.024;8.172;2023-09-19T16:53:46;3.75;;;1.85;;
15814;SDS011;8008;50.024;8.172;2023-09-19T16:56:16;4.68;;;1.40;;
15814;SDS011;8008;50.024;8.172;2023-09-19T16:58:46;4.85;;;1.85;;
15814;SDS011;8008;50.024;8.172;2023-09-19T17:01:17;4.05;;;1.35;;
15814;SDS011;8008;50.024;8.172;2023-09-19T17:03:46;4.93;;;1.60;;
15814;SDS011;8008;50.024;8.172;2023-09-19T17:06:17;5.50;;;1.60;;
15814;SDS011;8008;50.024;8.172;2023-09-19T17:08:49;3.55;;;1.40;;
15814;SDS011;8008;50.024;8.172;2023-09-19T17:11:17;2.47;;;1.35;;
15814;SDS011;8008;50.024;8.172;2023-09-19T17:13:47;2.85;;;1.40;;
15814;SDS011;8008;50.024;8.172;2023-09-19T17:16:18;3.15;;;1.48;;
15814;SDS011;8008;50.024;8.172;2023-09-19T17:18:52;3.13;;;1.40;;
15814;SDS011;8008;50.024;8.172;2023-09-19T17:21:24;2.65;;;1.33;;
15814;SDS011;8008;50.024;8.172;2023-09-19T17:23:53;2.72;;;1.50;;
15814;SDS011;8008;50.024;8.172;2023-09-19T17:26:24;1.52;;;1.30;;
15814;SDS011;8008;50.024;8.172;2023-09-19T17:28:52;4.05;;;1.50;;
15814;SDS011;8008;50.024;8.172;2023-09-19T17:31:21;4.47;;;1.52;;
15814;SDS011;8008;50.024;8.172;2023-09-19T17:33:52;4.13;;;1.55;;
15814;SDS011;8008;50.024;8.172;2023-09-19T17:36:21;1.50;;;1.40;;
15814;SDS011;8008;50.024;8.172;2023-09-19T17:38:52;3.40;;;1.50;;
15814;SDS011;8008;50.024;8.172;2023-09-19T17:41:21;2.72;;;1.60;;
15814;SDS011;8008;50.024;8.172;2023-09-19T17:43:53;4.88;;;1.40;;
15814;SDS011;8008;50.024;8.172;2023-09-19T17:46:22;3.63;;;1.38;;
15814;SDS011;8008;50.024;8.172;2023-09-19T17:48:52;1.95;;;1.35;;
15814;SDS011;8008;50.024;8.172;2023-09-19T17:51:21;2.25;;;1.40;;
15814;SDS011;8008;50.024;8.172;2023-09-19T17:53:52;2.85;;;1.50;;
15814;SDS011;8008;50.024;8.172;2023-09-19T17:56:23;2.63;;;1.38;;
15814;SDS011;8008;50.024;8.172;2023-09-19T17:58:51;2.50;;;1.58;;
15814;SDS011;8008;50.024;8.172;2023-09-19T18:01:24;1.83;;;1.30;;
15814;SDS011;8008;50.024;8.172;2023-09-19T18:03:54;2.33;;;1.63;;
15814;SDS011;8008;50.024;8.172;2023-09-19T18:06:27;3.72;;;1.88;;
15814;SDS011;8008;50.024;8.172;2023-09-19T18:08:59;3.15;;;2.33;;
15814;SDS011;8008;50.024;8.172;2023-09-19T18:11:28;2.33;;;2.05;;
15814;SDS011;8008;50.024;8.172;2023-09-19T18:13:57;4.28;;;2.20;;
15814;SDS011;8008;50.024;8.172;2023-09-19T18:16:26;2.47;;;2.03;;
15814;SDS011;8008;50.024;8.172;2023-09-19T18:18:57;2.72;;;2.40;;
15814;SDS011;8008;50.024;8.172;2023-09-19T18:21:26;4.05;;;2.40;;
15814;SDS011;8008;50.024;8.172;2023-09-19T18:23:55;3.35;;;1.80;;
15814;SDS011;8008;50.024;8.172;2023-09-19T18:26:25;3.92;;;2.20;;
15814;SDS011;8008;50.024;8.172;2023-09-19T18:28:54;4.22;;;2.10;;
15814;SDS011;8008;50.024;8.172;2023-09-19T18:31:29;2.80;;;2.05;;
15814;SDS011;8008;50.024;8.172;2023-09-19T18:33:57;8.45;;;2.10;;
15814;SDS011;8008;50.024;8.172;2023-09-19T18:36:26;2.10;;;1.70;;
15814;SDS011;8008;50.024;8.172;2023-09-19T18:38:55;3.35;;;1.70;;
15814;SDS011;8008;50.024;8.172;2023-09-19T18:41:23;2.38;;;1.60;;
15814;SDS011;8008;50.024;8.172;2023-09-19T18:43:53;3.42;;;1.60;;